createdAt,value
2022-12-31T00:01:17.344Z,96545.56
2022-12-31T00:02:49.102Z,96551.97
2022-12-31T00:04:20.892Z,96545.56
2022-12-31T00:05:52.530Z,96552.13
2022-12-31T00:07:24.218Z,96546.66
2022-12-31T00:08:56.806Z,96546.03
2022-12-31T00:10:28.584Z,96539.50
2022-12-31T00:12:00.241Z,96551.66
2022-12-31T00:13:31.915Z,96547.78
2022-12-31T00:15:03.851Z,96559.75
2022-12-31T00:16:37.977Z,96548.38
2022-12-31T00:18:10.107Z,96551.63
2022-12-31T00:19:41.796Z,96552.44
2022-12-31T00:21:13.891Z,96552.13
2022-12-31T00:22:45.540Z,96562.56
2022-12-31T00:24:17.156Z,96563.00
2022-12-31T00:25:48.769Z,96569.56
2022-12-31T00:27:22.325Z,96562.22
2022-12-31T00:28:54.493Z,96568.00
2022-12-31T00:30:26.097Z,96564.09
2022-12-31T00:31:59.074Z,96560.69
2022-12-31T00:33:30.675Z,96571.94
2022-12-31T00:35:02.307Z,96572.72
2022-12-31T00:36:34.797Z,96559.13
2022-12-31T00:38:06.445Z,96559.34
2022-12-31T00:39:38.051Z,96567.31
2022-12-31T00:41:09.813Z,96563.09
2022-12-31T00:42:41.397Z,96560.97
2022-12-31T00:44:13.090Z,96564.72
2022-12-31T00:45:44.780Z,96560.34
2022-12-31T00:47:17.854Z,96571.78
2022-12-31T00:48:49.460Z,96567.72
2022-12-31T00:50:21.121Z,96564.59
2022-12-31T00:51:52.731Z,96569.91
2022-12-31T00:53:24.757Z,96564.31
2022-12-31T00:54:57.859Z,96555.91
2022-12-31T00:56:32.042Z,96555.25
2022-12-31T00:58:03.787Z,96562.13
2022-12-31T00:59:35.489Z,96560.22
2022-12-31T01:01:10.576Z,96560.06
2022-12-31T01:02:43.847Z,96564.28
2022-12-31T01:04:17.223Z,96569.13
2022-12-31T01:05:50.303Z,96556.19
2022-12-31T01:07:21.956Z,96565.84
2022-12-31T01:08:55.191Z,96573.97
2022-12-31T01:10:45.373Z,96569.28
2022-12-31T01:12:17.012Z,96569.44
2022-12-31T01:13:49.792Z,96568.66
2022-12-31T01:15:21.385Z,96576.63
2022-12-31T01:16:53.398Z,96584.09
2022-12-31T01:18:26.368Z,96583.81
2022-12-31T01:19:57.979Z,96578.66
2022-12-31T01:21:29.719Z,96578.66
2022-12-31T01:23:01.341Z,96581.94
2022-12-31T01:24:32.975Z,96585.19
2022-12-31T01:26:06.023Z,96593.31
2022-12-31T01:27:37.682Z,96592.41
2022-12-31T01:29:09.559Z,96600.81
2022-12-31T01:30:41.278Z,96595.66
2022-12-31T01:32:13.148Z,96598.00
2022-12-31T01:33:46.234Z,96607.03
2022-12-31T01:35:17.933Z,96596.59
2022-12-31T01:36:49.924Z,96595.97
2022-12-31T01:38:21.515Z,96592.88
2022-12-31T01:39:53.164Z,96595.81
2022-12-31T01:41:26.531Z,96602.22
2022-12-31T01:42:58.223Z,96594.56
2022-12-31T01:44:50.391Z,96601.09
2022-12-31T01:46:26.341Z,96602.81
2022-12-31T01:47:58.228Z,96607.34
2022-12-31T01:49:33.318Z,96602.97
2022-12-31T01:51:05.233Z,96598.78
2022-12-31T01:52:37.869Z,96595.50
2022-12-31T01:54:09.600Z,96606.28
2022-12-31T01:55:44.463Z,96600.50
2022-12-31T01:57:16.063Z,96594.72
2022-12-31T01:58:48.395Z,96598.44
2022-12-31T02:00:20.134Z,96618.56
2022-12-31T02:01:54.749Z,96602.75
2022-12-31T02:03:27.091Z,96603.06
2022-12-31T02:05:00.446Z,96601.03
2022-12-31T02:06:34.500Z,96597.63
2022-12-31T02:08:06.227Z,96600.13
2022-12-31T02:09:40.069Z,96604.16
2022-12-31T02:11:25.937Z,96599.16
2022-12-31T02:12:57.614Z,96598.84
2022-12-31T02:14:30.720Z,96606.00
2022-12-31T02:16:05.210Z,96604.19
2022-12-31T02:17:39.077Z,96598.28
2022-12-31T02:19:35.652Z,96601.09
2022-12-31T02:21:19.135Z,96603.94
2022-12-31T02:23:02.677Z,96596.69
2022-12-31T02:24:52.943Z,96598.22
2022-12-31T02:26:42.433Z,96598.97
2022-12-31T02:28:20.442Z,96601.09
2022-12-31T02:30:11.435Z,96617.91
2022-12-31T02:31:44.117Z,96619.75
2022-12-31T02:33:18.330Z,96616.97
2022-12-31T02:34:51.803Z,96603.09
2022-12-31T02:36:24.852Z,96602.38
2022-12-31T02:37:59.120Z,96598.81
2022-12-31T02:39:30.800Z,96604.34
2022-12-31T02:41:02.549Z,96599.50
2022-12-31T02:42:34.170Z,96600.03
2022-12-31T02:44:20.800Z,96591.69
2022-12-31T02:45:57.696Z,96598.28
2022-12-31T02:47:36.734Z,96592.66
2022-12-31T02:49:10.867Z,96590.31
2022-12-31T02:50:55.378Z,96604.72
2022-12-31T02:52:29.358Z,96604.69
2022-12-31T02:54:11.856Z,96604.97
2022-12-31T02:55:46.138Z,96610.69
2022-12-31T02:57:20.418Z,96606.66
2022-12-31T02:59:15.825Z,96625.19
2022-12-31T03:01:08.212Z,96622.22
2022-12-31T03:02:42.133Z,96616.81
2022-12-31T03:04:32.184Z,96611.81
2022-12-31T03:06:04.086Z,96611.56
2022-12-31T03:07:35.866Z,96602.97
2022-12-31T03:09:13.535Z,96588.53
2022-12-31T03:10:45.167Z,96598.09
2022-12-31T03:12:35.361Z,96598.81
2022-12-31T03:14:07.107Z,96612.78
2022-12-31T03:15:39.056Z,96600.16
2022-12-31T03:17:10.775Z,96600.38
2022-12-31T03:19:02.316Z,96597.16
2022-12-31T03:20:53.508Z,96601.69
2022-12-31T03:22:28.159Z,96607.78
2022-12-31T03:24:18.240Z,96611.59
2022-12-31T03:25:49.930Z,96608.50
2022-12-31T03:27:21.504Z,96612.13
2022-12-31T03:28:53.085Z,96615.91
2022-12-31T03:30:24.968Z,96622.81
2022-12-31T03:31:56.595Z,96630.25
2022-12-31T03:33:30.257Z,96634.66
2022-12-31T03:35:03.355Z,96629.22
2022-12-31T03:36:35.104Z,96630.44
2022-12-31T03:38:07.030Z,96622.13
2022-12-31T03:39:38.733Z,96623.66
2022-12-31T03:41:10.445Z,96619.34
2022-12-31T03:42:42.297Z,96633.00
2022-12-31T03:44:13.905Z,96630.59
2022-12-31T03:45:45.569Z,96626.56
2022-12-31T03:47:17.161Z,96641.22
2022-12-31T03:48:48.765Z,96646.78
2022-12-31T03:50:24.376Z,96636.56
2022-12-31T03:51:56.053Z,96633.81
2022-12-31T03:53:27.660Z,96638.22
2022-12-31T03:54:59.264Z,96641.09
2022-12-31T03:56:30.845Z,96631.88
2022-12-31T03:58:02.508Z,96638.09
2022-12-31T03:59:34.164Z,96643.63
2022-12-31T04:01:06.003Z,96640.75
2022-12-31T04:02:38.019Z,96635.31
2022-12-31T04:04:09.661Z,96627.78
2022-12-31T04:05:42.650Z,96631.97
2022-12-31T04:07:14.292Z,96628.09
2022-12-31T04:08:46.027Z,96632.25
2022-12-31T04:10:17.742Z,96632.47
2022-12-31T04:11:49.322Z,96627.00
2022-12-31T04:13:20.903Z,96624.22
2022-12-31T04:14:52.542Z,96624.91
2022-12-31T04:16:24.283Z,96633.69
2022-12-31T04:17:55.987Z,96635.81
2022-12-31T04:19:27.606Z,96642.56
2022-12-31T04:21:02.753Z,96639.59
2022-12-31T04:22:34.392Z,96634.13
2022-12-31T04:24:07.017Z,96630.53
2022-12-31T04:25:38.602Z,96637.63
2022-12-31T04:27:10.241Z,96640.28
2022-12-31T04:28:41.835Z,96654.88
2022-12-31T04:30:13.855Z,96648.47
2022-12-31T04:31:45.648Z,96640.06
2022-12-31T04:33:17.273Z,96647.91
2022-12-31T04:34:48.894Z,96633.84
2022-12-31T04:36:21.931Z,96641.56
2022-12-31T04:37:53.645Z,96632.19
2022-12-31T04:39:25.390Z,96632.78
2022-12-31T04:41:15.649Z,96642.91
2022-12-31T04:42:47.294Z,96646.09
2022-12-31T04:44:19.231Z,96645.81
2022-12-31T04:45:50.845Z,96656.47
2022-12-31T04:47:23.986Z,96647.69
2022-12-31T04:48:55.824Z,96655.53
2022-12-31T04:50:27.486Z,96645.69
2022-12-31T04:52:00.441Z,96643.63
2022-12-31T04:53:32.035Z,96661.38
2022-12-31T04:55:04.034Z,96655.53
2022-12-31T04:56:36.717Z,96665.84
2022-12-31T04:58:08.403Z,96665.47
2022-12-31T04:59:40.029Z,96670.84
2022-12-31T05:01:12.032Z,96667.94
2022-12-31T05:02:43.878Z,96667.94
2022-12-31T05:04:15.659Z,96673.53
2022-12-31T05:05:47.451Z,96671.84
2022-12-31T05:07:20.432Z,96678.53
2022-12-31T05:08:52.046Z,96682.75
2022-12-31T05:10:23.702Z,96680.00
2022-12-31T05:11:55.362Z,96693.44
2022-12-31T05:13:32.911Z,96693.88
2022-12-31T05:15:06.353Z,96687.44
2022-12-31T05:16:38.039Z,96688.66
2022-12-31T05:18:09.685Z,96701.09
2022-12-31T05:19:41.330Z,96690.09
2022-12-31T05:21:14.970Z,96685.19
2022-12-31T05:22:47.951Z,96692.75
2022-12-31T05:24:19.600Z,96686.53
2022-12-31T05:25:51.609Z,96688.09
2022-12-31T05:27:23.248Z,96672.75
2022-12-31T05:28:56.434Z,96666.88
2022-12-31T05:30:28.184Z,96678.53
2022-12-31T05:31:59.848Z,96676.66
2022-12-31T05:33:31.556Z,96672.94
2022-12-31T05:35:03.412Z,96677.00
2022-12-31T05:36:35.063Z,96684.41
2022-12-31T05:38:08.094Z,96667.22
2022-12-31T05:39:39.726Z,96673.97
2022-12-31T05:41:11.547Z,96681.38
2022-12-31T05:42:43.590Z,96673.38
2022-12-31T05:44:16.462Z,96667.94
2022-12-31T05:45:48.085Z,96659.19
2022-12-31T05:47:19.738Z,96662.06
2022-12-31T05:48:51.342Z,96654.97
2022-12-31T05:50:23.015Z,96663.59
2022-12-31T05:51:54.645Z,96663.94
2022-12-31T05:53:27.639Z,96669.78
2022-12-31T05:54:59.223Z,96666.31
2022-12-31T05:56:30.811Z,96661.75
2022-12-31T05:58:02.560Z,96669.63
2022-12-31T05:59:34.264Z,96674.22
2022-12-31T06:01:05.871Z,96674.22
2022-12-31T06:02:37.619Z,96693.28
2022-12-31T06:04:09.296Z,96692.97
2022-12-31T06:05:41.430Z,96685.75
2022-12-31T06:07:13.135Z,96691.06
2022-12-31T06:08:48.927Z,96699.28
2022-12-31T06:10:20.724Z,96698.81
2022-12-31T06:11:52.371Z,96705.50
2022-12-31T06:13:24.116Z,96706.75
2022-12-31T06:14:55.808Z,96710.91
2022-12-31T06:16:30.593Z,96713.56
2022-12-31T06:18:02.180Z,96699.94
2022-12-31T06:19:33.874Z,96701.03
2022-12-31T06:21:05.882Z,96706.16
2022-12-31T06:22:37.531Z,96718.03
2022-12-31T06:24:10.549Z,96710.19
2022-12-31T06:25:42.253Z,96717.13
2022-12-31T06:27:13.861Z,96720.19
2022-12-31T06:28:45.437Z,96718.22
2022-12-31T06:30:17.297Z,96715.53
2022-12-31T06:31:48.974Z,96714.88
2022-12-31T06:33:20.653Z,96711.88
2022-12-31T06:34:52.313Z,96710.22
2022-12-31T06:36:23.982Z,96701.13
2022-12-31T06:37:55.680Z,96706.00
2022-12-31T06:39:28.720Z,96714.44
2022-12-31T06:41:03.027Z,96718.75
2022-12-31T06:42:34.613Z,96716.53
2022-12-31T06:44:06.405Z,96718.31
2022-12-31T06:45:39.510Z,96715.13
2022-12-31T06:47:11.162Z,96720.66
2022-12-31T06:48:44.629Z,96720.75
2022-12-31T06:50:16.360Z,96717.94
2022-12-31T06:51:48.041Z,96718.78
2022-12-31T06:53:19.671Z,96714.88
2022-12-31T06:54:53.236Z,96721.06
2022-12-31T06:56:33.144Z,96714.97
2022-12-31T06:58:06.284Z,96704.53
2022-12-31T06:59:38.346Z,96708.75
2022-12-31T07:01:20.249Z,96716.91
2022-12-31T07:03:07.865Z,96724.59
2022-12-31T07:05:12.202Z,96730.06
2022-12-31T07:06:44.301Z,96737.94
2022-12-31T07:08:26.512Z,96729.94
2022-12-31T07:10:02.814Z,96731.38
2022-12-31T07:11:37.073Z,96724.81
2022-12-31T07:13:20.639Z,96727.47
2022-12-31T07:14:54.848Z,96735.72
2022-12-31T07:16:37.126Z,96730.69
2022-12-31T07:18:15.006Z,96720.88
2022-12-31T07:19:55.439Z,96726.91
2022-12-31T07:21:31.981Z,96726.06
2022-12-31T07:23:04.025Z,96725.41
2022-12-31T07:24:36.273Z,96733.72
2022-12-31T07:26:14.421Z,96734.03
2022-12-31T07:27:56.637Z,96738.09
2022-12-31T07:29:31.628Z,96742.97
2022-12-31T07:31:05.852Z,96734.84
2022-12-31T07:33:05.743Z,96741.34
2022-12-31T07:34:39.837Z,96738.63
2022-12-31T07:36:16.709Z,96744.06
2022-12-31T07:37:51.992Z,96746.56
2022-12-31T07:39:28.621Z,96749.81
2022-12-31T07:41:09.387Z,96740.22
2022-12-31T07:42:45.869Z,96737.41
2022-12-31T07:44:26.718Z,96736.25
2022-12-31T07:46:00.820Z,96742.03
2022-12-31T07:47:32.961Z,96737.94
2022-12-31T07:49:05.085Z,96736.00
2022-12-31T07:50:37.246Z,96745.22
2022-12-31T07:52:09.841Z,96753.22
2022-12-31T07:53:41.451Z,96751.50
2022-12-31T07:55:13.259Z,96753.56
2022-12-31T07:56:44.856Z,96761.09
2022-12-31T07:58:22.132Z,96761.75
2022-12-31T08:00:02.275Z,96747.38
2022-12-31T08:01:38.583Z,96746.47
2022-12-31T08:03:14.499Z,96752.84
2022-12-31T08:04:49.118Z,96753.81
2022-12-31T08:06:24.992Z,96754.00
2022-12-31T08:07:58.466Z,96765.44
2022-12-31T08:09:37.296Z,96757.34
2022-12-31T08:11:12.639Z,96768.41
2022-12-31T08:12:44.259Z,96773.63
2022-12-31T08:14:17.421Z,96772.84
2022-12-31T08:15:49.569Z,96778.22
2022-12-31T08:17:21.671Z,96772.31
2022-12-31T08:18:53.923Z,96778.94
2022-12-31T08:20:25.650Z,96778.53
2022-12-31T08:22:10.354Z,96782.75
2022-12-31T08:23:44.436Z,96777.31
2022-12-31T08:25:19.131Z,96779.91
2022-12-31T08:26:55.796Z,96777.25
2022-12-31T08:28:32.252Z,96771.34
2022-12-31T08:30:09.272Z,96782.31
2022-12-31T08:31:45.195Z,96780.88
2022-12-31T08:33:19.495Z,96780.88
2022-12-31T08:34:57.565Z,96784.63
2022-12-31T08:36:33.026Z,96784.63
2022-12-31T08:38:17.476Z,96788.75
2022-12-31T08:39:56.255Z,96778.59
2022-12-31T08:41:30.224Z,96780.59
2022-12-31T08:43:08.098Z,96776.38
2022-12-31T08:44:41.670Z,96779.31
2022-12-31T08:46:17.682Z,96775.28
2022-12-31T08:47:56.459Z,96771.38
2022-12-31T08:49:32.246Z,96777.84
2022-12-31T08:51:04.424Z,96789.13
2022-12-31T08:52:36.708Z,96788.22
2022-12-31T08:54:10.500Z,96784.91
2022-12-31T08:55:42.230Z,96786.66
2022-12-31T08:57:16.696Z,96779.59
2022-12-31T08:58:52.361Z,96778.81
2022-12-31T09:00:24.569Z,96787.09
2022-12-31T09:02:08.380Z,96777.81
2022-12-31T09:03:50.416Z,96776.06
2022-12-31T09:05:23.652Z,96772.41
2022-12-31T09:06:57.071Z,96770.03
2022-12-31T09:08:31.634Z,96767.97
2022-12-31T09:10:07.851Z,96772.31
2022-12-31T09:11:48.215Z,96768.66
2022-12-31T09:13:23.788Z,96760.47
2022-12-31T09:14:57.137Z,96765.59
2022-12-31T09:16:32.182Z,96761.03
2022-12-31T09:18:07.180Z,96765.38
2022-12-31T09:19:38.869Z,96768.69
2022-12-31T09:21:11.177Z,96771.88
2022-12-31T09:22:43.013Z,96771.88
2022-12-31T09:24:18.031Z,96771.94
2022-12-31T09:25:59.493Z,96774.72
2022-12-31T09:27:35.913Z,96765.47
2022-12-31T09:29:10.517Z,96766.47
2022-12-31T09:30:45.760Z,96770.31
2022-12-31T09:32:22.629Z,96766.78
2022-12-31T09:33:57.636Z,96777.44
2022-12-31T09:35:34.339Z,96771.09
2022-12-31T09:37:09.046Z,96766.31
2022-12-31T09:38:43.932Z,96765.47
2022-12-31T09:40:46.590Z,96775.03
2022-12-31T09:42:51.782Z,96776.00
2022-12-31T09:44:52.954Z,96778.44
2022-12-31T09:46:37.587Z,96776.69
2022-12-31T09:48:37.522Z,96775.78
2022-12-31T09:50:33.498Z,96773.19
2022-12-31T09:52:08.379Z,96779.38
2022-12-31T09:53:48.710Z,96777.38
2022-12-31T09:55:30.629Z,96773.19
2022-12-31T09:57:26.853Z,96776.88
2022-12-31T09:59:01.910Z,96764.19
2022-12-31T10:00:37.608Z,96771.22
2022-12-31T10:02:18.720Z,96768.56
2022-12-31T10:04:25.664Z,96763.03
2022-12-31T10:06:06.893Z,96766.09
2022-12-31T10:07:52.028Z,96758.69
2022-12-31T10:09:32.508Z,96760.84
2022-12-31T10:11:05.853Z,96758.59
2022-12-31T10:12:54.993Z,96766.00
2022-12-31T10:14:35.717Z,96764.53
2022-12-31T10:16:30.768Z,96769.03
2022-12-31T10:18:06.361Z,96759.50
2022-12-31T10:19:45.998Z,96762.53
2022-12-31T10:21:26.778Z,96768.25
2022-12-31T10:23:07.864Z,96758.75
2022-12-31T10:24:49.389Z,96762.09
2022-12-31T10:26:41.577Z,96757.50
2022-12-31T10:28:23.357Z,96745.88
2022-12-31T10:29:58.332Z,96746.56
2022-12-31T10:31:39.293Z,96743.72
2022-12-31T10:33:16.722Z,96743.34
2022-12-31T10:34:54.734Z,96737.97
2022-12-31T10:36:30.185Z,96735.75
2022-12-31T10:38:06.870Z,96743.81
2022-12-31T10:39:44.536Z,96729.06
2022-12-31T10:41:50.379Z,96732.50
2022-12-31T10:43:54.640Z,96725.94
2022-12-31T10:46:05.109Z,96719.19
2022-12-31T10:48:09.060Z,96718.50
2022-12-31T10:49:59.813Z,96722.16
2022-12-31T10:52:10.109Z,96717.72
2022-12-31T10:54:23.383Z,96713.97
2022-12-31T10:56:19.906Z,96713.97
2022-12-31T10:58:35.580Z,96713.94
2022-12-31T11:00:17.441Z,96707.44
2022-12-31T11:01:52.375Z,96705.16
2022-12-31T11:04:04.987Z,96706.72
2022-12-31T11:06:11.467Z,96705.59
2022-12-31T11:08:00.551Z,96706.41
2022-12-31T11:09:45.254Z,96711.59
2022-12-31T11:11:22.367Z,96708.25
2022-12-31T11:13:22.655Z,96703.06
2022-12-31T11:15:13.733Z,96700.31
2022-12-31T11:16:51.831Z,96695.63
2022-12-31T11:18:27.425Z,96702.00
2022-12-31T11:20:07.175Z,96705.25
2022-12-31T11:21:48.194Z,96701.59
2022-12-31T11:23:37.574Z,96696.94
2022-12-31T11:25:34.592Z,96699.03
2022-12-31T11:27:16.060Z,96694.84
2022-12-31T11:29:03.875Z,96689.06
2022-12-31T11:30:38.275Z,96680.09
2022-12-31T11:32:22.684Z,96684.47
2022-12-31T11:34:04.010Z,96684.31
2022-12-31T11:35:55.601Z,96686.72
2022-12-31T11:37:33.749Z,96677.28
2022-12-31T11:39:30.781Z,96676.09
2022-12-31T11:41:04.828Z,96676.16
2022-12-31T11:42:41.631Z,96684.91
2022-12-31T11:44:18.116Z,96676.09
2022-12-31T11:46:01.764Z,96679.56
2022-12-31T11:48:04.244Z,96683.38
2022-12-31T11:49:43.313Z,96676.28
2022-12-31T11:51:36.842Z,96676.44
2022-12-31T11:53:23.926Z,96677.66
2022-12-31T11:55:05.067Z,96671.81
2022-12-31T11:56:37.891Z,96670.03
2022-12-31T11:58:13.726Z,96664.84
2022-12-31T11:59:45.421Z,96664.66
2022-12-31T12:01:19.144Z,96663.06
2022-12-31T12:02:51.449Z,96651.38
2022-12-31T12:04:25.223Z,96658.91
2022-12-31T12:05:57.003Z,96657.72
2022-12-31T12:07:28.878Z,96652.25
2022-12-31T12:09:05.983Z,96654.09
2022-12-31T12:10:42.243Z,96656.59
2022-12-31T12:12:13.965Z,96648.06
2022-12-31T12:13:45.821Z,96648.03
2022-12-31T12:15:19.042Z,96635.53
2022-12-31T12:16:55.812Z,96639.41
2022-12-31T12:18:37.007Z,96641.88
2022-12-31T12:20:16.155Z,96634.38
2022-12-31T12:21:50.000Z,96630.53
2022-12-31T12:23:27.272Z,96624.88
2022-12-31T12:25:04.969Z,96631.16
2022-12-31T12:26:42.329Z,96634.91
2022-12-31T12:28:19.332Z,96634.53
2022-12-31T12:29:51.032Z,96625.44
2022-12-31T12:31:23.568Z,96628.84
2022-12-31T12:33:04.727Z,96628.28
2022-12-31T12:34:37.908Z,96628.03
2022-12-31T12:36:10.426Z,96633.19
2022-12-31T12:37:47.266Z,96627.41
2022-12-31T12:39:21.134Z,96637.16
2022-12-31T12:40:54.438Z,96631.81
2022-12-31T12:42:27.670Z,96622.94
2022-12-31T12:45:55.968Z,96624.41
2022-12-31T12:47:28.225Z,96620.84
2022-12-31T12:48:59.991Z,96621.63
2022-12-31T12:50:41.265Z,96621.19
2022-12-31T12:52:33.901Z,96610.91
2022-12-31T12:54:17.574Z,96610.03
2022-12-31T12:56:04.789Z,96607.13
2022-12-31T12:57:51.461Z,96607.94
2022-12-31T12:59:43.112Z,96603.72
2022-12-31T13:01:28.098Z,96609.91
2022-12-31T13:03:25.093Z,96614.84
2022-12-31T13:05:06.987Z,96611.28
2022-12-31T13:06:48.447Z,96607.09
2022-12-31T13:08:39.999Z,96606.53
2022-12-31T13:10:45.423Z,96607.66
2022-12-31T13:13:37.491Z,96600.75
2022-12-31T13:26:10.750Z,96603.13
2022-12-31T13:29:03.139Z,96597.16
2022-12-31T13:30:50.729Z,96598.28
2022-12-31T13:32:31.966Z,96599.69
2022-12-31T13:34:39.560Z,96599.50
2022-12-31T13:36:42.014Z,96605.03
2022-12-31T13:38:31.667Z,96607.09
2022-12-31T13:43:15.207Z,96604.00
2022-12-31T13:45:53.631Z,96604.09
2022-12-31T13:47:47.582Z,96606.22
2022-12-31T13:51:27.087Z,96614.47
2022-12-31T13:53:15.517Z,96604.19
2022-12-31T13:55:04.651Z,96599.97
2022-12-31T13:56:55.120Z,96606.09
2022-12-31T13:58:31.925Z,96606.56
2022-12-31T14:00:19.385Z,96604.22
2022-12-31T14:01:52.808Z,96605.06
2022-12-31T14:03:39.789Z,96602.84
2022-12-31T14:05:25.849Z,96602.13
2022-12-31T14:07:29.186Z,96614.72
2022-12-31T14:09:11.228Z,96608.94
2022-12-31T14:13:35.996Z,96611.75
2022-12-31T14:15:11.654Z,96615.69
2022-12-31T14:16:54.612Z,96620.97
2022-12-31T14:18:35.224Z,96611.75
2022-12-31T14:20:14.457Z,96620.53
2022-12-31T14:21:47.642Z,96616.75
2022-12-31T14:23:22.398Z,96623.81
2022-12-31T14:25:21.760Z,96627.53
2022-12-31T14:26:58.279Z,96628.22
2022-12-31T14:28:50.691Z,96625.47
2022-12-31T14:34:05.560Z,96625.81
2022-12-31T14:40:51.360Z,96624.34
2022-12-31T14:42:30.437Z,96623.56
2022-12-31T14:45:03.174Z,96624.34
2022-12-31T14:46:23.175Z,96620.34
2022-12-31T14:47:56.909Z,96624.59
2022-12-31T14:49:41.672Z,96627.81
2022-12-31T14:51:25.731Z,96623.91
2022-12-31T14:53:14.704Z,96626.66
2022-12-31T14:54:55.655Z,96622.88
2022-12-31T14:56:43.518Z,96625.38
2022-12-31T14:58:40.276Z,96629.25
2022-12-31T15:00:36.767Z,96634.72
2022-12-31T15:02:37.220Z,96623.31
2022-12-31T15:04:16.312Z,96635.47
2022-12-31T15:06:00.229Z,96634.34
2022-12-31T15:07:43.990Z,96640.28
2022-12-31T15:09:59.948Z,96643.50
2022-12-31T15:12:07.017Z,96636.88
2022-12-31T15:14:18.019Z,96634.63
2022-12-31T15:16:12.292Z,96642.53
2022-12-31T15:18:12.451Z,96634.88
2022-12-31T15:19:59.176Z,96629.44
2022-12-31T15:21:41.004Z,96640.66
2022-12-31T15:23:30.595Z,96639.81
2022-12-31T15:25:28.518Z,96638.78
2022-12-31T15:27:05.910Z,96648.63
2022-12-31T15:28:56.597Z,96645.19
2022-12-31T15:30:43.131Z,96653.53
2022-12-31T15:32:24.740Z,96654.53
2022-12-31T15:34:11.264Z,96657.31
2022-12-31T15:35:53.089Z,96656.53
2022-12-31T15:37:36.706Z,96651.88
2022-12-31T15:39:39.554Z,96650.66
2022-12-31T15:41:37.184Z,96656.88
2022-12-31T15:43:14.711Z,96662.53
2022-12-31T15:44:56.675Z,96660.34
2022-12-31T15:46:30.992Z,96667.88
2022-12-31T15:48:09.148Z,96661.78
2022-12-31T15:49:47.772Z,96666.53
2022-12-31T15:51:35.155Z,96660.78
2022-12-31T15:53:20.783Z,96664.22
2022-12-31T15:55:09.924Z,96669.13
2022-12-31T15:56:50.540Z,96668.78
2022-12-31T15:58:32.245Z,96667.22
2022-12-31T16:00:11.439Z,96669.31
2022-12-31T16:01:51.395Z,96666.97
2022-12-31T16:03:36.117Z,96674.53
2022-12-31T16:07:07.081Z,96665.31
2022-12-31T16:08:55.696Z,96660.88
2022-12-31T16:10:43.959Z,96659.56
2022-12-31T16:13:08.687Z,96661.00
2022-12-31T16:15:03.038Z,96670.22
2022-12-31T16:16:46.261Z,96672.63
2022-12-31T16:18:23.442Z,96672.53
2022-12-31T16:20:01.729Z,96677.44
2022-12-31T16:21:43.675Z,96679.66
2022-12-31T16:23:25.533Z,96674.13
2022-12-31T16:25:29.580Z,96674.44
2022-12-31T16:27:07.871Z,96680.56
2022-12-31T16:28:52.307Z,96673.44
2022-12-31T16:30:39.738Z,96675.75
2022-12-31T16:32:14.903Z,96686.06
2022-12-31T16:34:05.181Z,96689.41
2022-12-31T16:36:02.527Z,96689.81
2022-12-31T16:44:33.473Z,96691.09
2022-12-31T16:46:10.267Z,96686.78
2022-12-31T16:47:43.287Z,96694.75
2022-12-31T16:49:16.944Z,96693.75
2022-12-31T16:50:50.668Z,96701.53
2022-12-31T16:52:27.925Z,96708.75
2022-12-31T16:53:59.865Z,96708.06
2022-12-31T16:55:31.787Z,96701.13
2022-12-31T16:57:04.748Z,96705.41
2022-12-31T16:58:39.868Z,96699.41
2022-12-31T17:00:15.831Z,96700.97
2022-12-31T17:01:47.907Z,96701.00
2022-12-31T17:03:20.671Z,96696.53
2022-12-31T17:04:56.107Z,96697.47
2022-12-31T17:06:28.553Z,96706.72
2022-12-31T17:08:00.993Z,96702.19
2022-12-31T17:09:34.290Z,96703.94
2022-12-31T17:11:06.062Z,96700.91
2022-12-31T17:13:17.399Z,96700.34
2022-12-31T17:14:35.296Z,96704.94
2022-12-31T17:16:07.234Z,96696.91
2022-12-31T17:17:38.921Z,96704.78
2022-12-31T17:19:19.502Z,96703.13
2022-12-31T17:20:51.568Z,96698.59
2022-12-31T17:22:32.807Z,96707.63
2022-12-31T17:24:08.131Z,96708.88
2022-12-31T17:25:39.840Z,96709.00
2022-12-31T17:27:11.492Z,96711.34
2022-12-31T17:28:44.830Z,96708.81
2022-12-31T17:30:22.335Z,96709.53
2022-12-31T17:32:00.692Z,96705.00
2022-12-31T17:33:32.420Z,96715.91
2022-12-31T17:35:26.501Z,96712.56
2022-12-31T17:37:04.031Z,96719.69
2022-12-31T17:38:35.903Z,96718.66
2022-12-31T17:40:51.918Z,96721.47
2022-12-31T17:42:28.180Z,96713.75
2022-12-31T17:43:59.856Z,96720.31
2022-12-31T17:45:35.860Z,96710.44
2022-12-31T17:47:08.423Z,96711.59
2022-12-31T17:48:40.135Z,96727.22
2022-12-31T17:50:19.252Z,96721.44
2022-12-31T17:51:50.918Z,96724.34
2022-12-31T17:53:22.688Z,96716.25
2022-12-31T17:54:54.399Z,96714.09
2022-12-31T17:56:26.133Z,96707.09
2022-12-31T17:57:57.905Z,96705.03
2022-12-31T17:59:30.539Z,96716.00
2022-12-31T18:01:05.360Z,96713.22
2022-12-31T18:02:37.176Z,96715.53
2022-12-31T18:04:11.185Z,96702.31
2022-12-31T18:05:42.858Z,96717.22
2022-12-31T18:07:14.674Z,96714.25
2022-12-31T18:08:46.370Z,96726.72
2022-12-31T18:10:19.312Z,96726.25
2022-12-31T18:11:52.559Z,96724.53
2022-12-31T18:13:27.222Z,96724.19
2022-12-31T18:14:58.887Z,96725.44
2022-12-31T18:16:31.993Z,96726.75
2022-12-31T18:18:09.608Z,96722.13
2022-12-31T18:20:06.715Z,96729.19
2022-12-31T18:21:34.573Z,96729.88
2022-12-31T18:23:06.295Z,96731.06
2022-12-31T18:24:37.976Z,96733.38
2022-12-31T18:26:09.804Z,96734.34
2022-12-31T18:27:42.066Z,96738.25
2022-12-31T18:29:15.284Z,96738.81
2022-12-31T18:30:49.186Z,96737.84
2022-12-31T18:32:23.351Z,96735.56
2022-12-31T18:33:55.552Z,96735.66
2022-12-31T18:35:58.166Z,96735.94
2022-12-31T18:37:21.998Z,96741.75
2022-12-31T18:38:54.071Z,96744.69
2022-12-31T18:40:25.737Z,96746.69
2022-12-31T18:41:57.422Z,96751.31
2022-12-31T18:43:29.099Z,96742.47
2022-12-31T18:45:00.753Z,96747.03
2022-12-31T18:46:32.362Z,96751.31
2022-12-31T18:48:05.431Z,96753.22
2022-12-31T18:49:37.056Z,96759.34
2022-12-31T18:51:12.289Z,96750.25
2022-12-31T18:52:43.954Z,96751.25
2022-12-31T18:54:15.785Z,96748.09
2022-12-31T18:55:48.711Z,96744.44
2022-12-31T18:57:20.416Z,96736.84
2022-12-31T18:58:52.279Z,96742.59
2022-12-31T19:00:23.961Z,96737.69
2022-12-31T19:01:55.752Z,96747.66
2022-12-31T19:03:29.241Z,96741.69
2022-12-31T19:05:01.202Z,96743.25
2022-12-31T19:06:32.871Z,96747.81
2022-12-31T19:08:05.079Z,96750.78
2022-12-31T19:09:45.948Z,96755.31
2022-12-31T19:11:18.970Z,96759.97
2022-12-31T19:12:50.758Z,96759.97
2022-12-31T19:14:24.297Z,96757.81
2022-12-31T19:15:56.058Z,96755.31
2022-12-31T19:17:27.960Z,96756.38
2022-12-31T19:19:06.787Z,96756.19
2022-12-31T19:20:41.163Z,96748.63
2022-12-31T19:22:18.705Z,96759.31
2022-12-31T19:23:56.749Z,96748.44
2022-12-31T19:25:31.230Z,96745.00
2022-12-31T19:27:02.904Z,96737.91
2022-12-31T19:28:34.657Z,96744.94
2022-12-31T19:30:09.618Z,96745.16
2022-12-31T19:31:41.425Z,96736.56
2022-12-31T19:33:14.433Z,96749.97
2022-12-31T19:34:47.569Z,96744.03
2022-12-31T19:36:20.063Z,96743.56
2022-12-31T19:37:52.566Z,96745.00
2022-12-31T19:39:30.194Z,96747.03
2022-12-31T19:41:04.831Z,96748.59
2022-12-31T19:42:36.561Z,96748.88
2022-12-31T19:44:12.861Z,96742.47
2022-12-31T19:45:48.732Z,96749.22
2022-12-31T19:47:20.528Z,96748.00
2022-12-31T19:48:53.241Z,96745.66
2022-12-31T19:50:27.020Z,96741.00